sensor_id;sensor_type;location;lat;lon;timestamp;P1;durP1;ratioP1;P2;durP2;ratioP2
32475;SDS011;18929;48.008;10.882;2022-09-09T00:00:32;4.82;;;1.60;;
32475;SDS011;18929;48.008;10.882;2022-09-09T00:03:06;5.68;;;2.03;;
32475;SDS011;18929;48.008;10.882;2022-09-09T00:05:41;4.55;;;1.67;;
32475;SDS011;18929;48.008;10.882;2022-09-09T00:08:15;10.10;;;2.30;;
32475;SDS011;18929;48.008;10.882;2022-09-09T00:10:47;4.28;;;1.90;;
32475;SDS011;18929;48.008;10.882;2022-09-09T00:13:19;4.30;;;1.70;;
32475;SDS011;18929;48.008;10.882;2022-09-09T00:15:52;5.90;;;1.70;;
32475;SDS011;18929;48.008;10.882;2022-09-09T00:18:27;4.15;;;1.73;;
32475;SDS011;18929;48.008;10.882;2022-09-09T00:21:01;3.67;;;1.60;;
32475;SDS011;18929;48.008;10.882;2022-09-09T00:23:33;4.10;;;1.65;;
32475;SDS011;18929;48.008;10.882;2022-09-09T00:26:04;3.65;;;1.60;;
32475;SDS011;18929;48.008;10.882;2022-09-09T00:28:37;4.18;;;1.65;;
32475;SDS011;18929;48.008;10.882;2022-09-09T00:31:11;2.38;;;1.30;;
32475;SDS011;18929;48.008;10.882;2022-09-09T00:33:41;6.80;;;1.30;;
32475;SDS011;18929;48.008;10.882;2022-09-09T00:36:12;4.45;;;1.48;;
32475;SDS011;18929;48.008;10.882;2022-09-09T00:38:42;4.72;;;1.40;;
32475;SDS011;18929;48.008;10.882;2022-09-09T00:41:14;3.60;;;1.30;;
32475;SDS011;18929;48.008;10.882;2022-09-09T00:43:51;2.55;;;1.25;;
32475;SDS011;18929;48.008;10.882;2022-09-09T00:49:22;3.22;;;1.20;;
32475;SDS011;18929;48.008;10.882;2022-09-09T00:51:57;4.38;;;1.40;;
32475;SDS011;18929;48.008;10.882;2022-09-09T00:54:40;4.57;;;1.40;;
32475;SDS011;18929;48.008;10.882;2022-09-09T00:57:18;2.40;;;1.20;;
32475;SDS011;18929;48.008;10.882;2022-09-09T00:59:56;2.10;;;0.90;;
32475;SDS011;18929;48.008;10.882;2022-09-09T01:02:31;2.55;;;1.02;;
32475;SDS011;18929;48.008;10.882;2022-09-09T01:05:07;4.45;;;1.10;;
32475;SDS011;18929;48.008;10.882;2022-09-09T01:07:39;8.07;;;1.10;;
32475;SDS011;18929;48.008;10.882;2022-09-09T01:10:13;2.47;;;1.20;;
32475;SDS011;18929;48.008;10.882;2022-09-09T01:12:51;3.47;;;1.45;;
32475;SDS011;18929;48.008;10.882;2022-09-09T01:15:20;3.38;;;1.20;;
32475;SDS011;18929;48.008;10.882;2022-09-09T01:17:54;2.45;;;1.20;;
32475;SDS011;18929;48.008;10.882;2022-09-09T01:20:29;3.53;;;1.20;;
32475;SDS011;18929;48.008;10.882;2022-09-09T01:23:19;4.70;;;1.30;;
32475;SDS011;18929;48.008;10.882;2022-09-09T01:26:07;4.68;;;1.30;;
32475;SDS011;18929;48.008;10.882;2022-09-09T01:28:45;1.77;;;1.02;;
32475;SDS011;18929;48.008;10.882;2022-09-09T01:31:15;2.45;;;1.00;;
32475;SDS011;18929;48.008;10.882;2022-09-09T01:33:44;2.28;;;1.10;;
32475;SDS011;18929;48.008;10.882;2022-09-09T01:36:12;4.03;;;1.33;;
32475;SDS011;18929;48.008;10.882;2022-09-09T01:38:46;3.25;;;1.10;;
32475;SDS011;18929;48.008;10.882;2022-09-09T01:41:14;3.80;;;1.13;;
32475;SDS011;18929;48.008;10.882;2022-09-09T01:43:41;2.38;;;1.02;;
32475;SDS011;18929;48.008;10.882;2022-09-09T01:46:08;4.30;;;1.13;;
32475;SDS011;18929;48.008;10.882;2022-09-09T01:48:37;5.30;;;1.20;;
32475;SDS011;18929;48.008;10.882;2022-09-09T01:51:05;2.88;;;1.10;;
32475;SDS011;18929;48.008;10.882;2022-09-09T01:53:33;3.13;;;1.23;;
32475;SDS011;18929;48.008;10.882;2022-09-09T01:56:02;3.13;;;1.02;;
32475;SDS011;18929;48.008;10.882;2022-09-09T01:58:41;2.13;;;1.00;;
32475;SDS011;18929;48.008;10.882;2022-09-09T02:01:22;3.03;;;1.30;;
32475;SDS011;18929;48.008;10.882;2022-09-09T02:03:55;3.53;;;0.95;;
32475;SDS011;18929;48.008;10.882;2022-09-09T02:06:25;4.32;;;1.33;;
32475;SDS011;18929;48.008;10.882;2022-09-09T02:08:56;3.17;;;1.15;;
32475;SDS011;18929;48.008;10.882;2022-09-09T02:11:26;7.95;;;1.40;;
32475;SDS011;18929;48.008;10.882;2022-09-09T02:13:57;5.03;;;0.82;;
32475;SDS011;18929;48.008;10.882;2022-09-09T02:16:28;3.10;;;0.98;;
32475;SDS011;18929;48.008;10.882;2022-09-09T02:19:01;3.60;;;1.00;;
32475;SDS011;18929;48.008;10.882;2022-09-09T02:21:30;3.42;;;0.95;;
32475;SDS011;18929;48.008;10.882;2022-09-09T02:24:00;2.35;;;0.90;;
32475;SDS011;18929;48.008;10.882;2022-09-09T02:26:30;4.70;;;1.20;;
32475;SDS011;18929;48.008;10.882;2022-09-09T02:29:01;2.47;;;0.90;;
32475;SDS011;18929;48.008;10.882;2022-09-09T02:31:31;2.60;;;1.10;;
32475;SDS011;18929;48.008;10.882;2022-09-09T02:34:01;1.98;;;0.90;;
32475;SDS011;18929;48.008;10.882;2022-09-09T02:36:31;5.07;;;1.05;;
32475;SDS011;18929;48.008;10.882;2022-09-09T02:39:00;2.75;;;1.00;;
32475;SDS011;18929;48.008;10.882;2022-09-09T02:41:30;1.70;;;0.95;;
32475;SDS011;18929;48.008;10.882;2022-09-09T02:44:01;2.10;;;0.80;;
32475;SDS011;18929;48.008;10.882;2022-09-09T02:46:35;5.15;;;1.20;;
32475;SDS011;18929;48.008;10.882;2022-09-09T02:49:11;3.05;;;0.93;;
32475;SDS011;18929;48.008;10.882;2022-09-09T02:51:45;4.05;;;1.08;;
32475;SDS011;18929;48.008;10.882;2022-09-09T02:54:20;3.17;;;1.25;;
32475;SDS011;18929;48.008;10.882;2022-09-09T02:56:53;3.63;;;1.00;;
32475;SDS011;18929;48.008;10.882;2022-09-09T02:59:22;2.00;;;0.85;;
32475;SDS011;18929;48.008;10.882;2022-09-09T03:01:52;3.38;;;0.80;;
32475;SDS011;18929;48.008;10.882;2022-09-09T03:04:19;1.98;;;1.08;;
32475;SDS011;18929;48.008;10.882;2022-09-09T03:06:46;2.35;;;0.80;;
32475;SDS011;18929;48.008;10.882;2022-09-09T03:09:13;4.75;;;1.08;;
32475;SDS011;18929;48.008;10.882;2022-09-09T03:11:40;3.92;;;0.95;;
32475;SDS011;18929;48.008;10.882;2022-09-09T03:14:07;5.03;;;1.02;;
32475;SDS011;18929;48.008;10.882;2022-09-09T03:16:37;5.68;;;1.25;;
32475;SDS011;18929;48.008;10.882;2022-09-09T03:19:04;1.90;;;0.95;;
32475;SDS011;18929;48.008;10.882;2022-09-09T03:21:32;4.88;;;1.00;;
32475;SDS011;18929;48.008;10.882;2022-09-09T03:23:59;2.72;;;1.10;;
32475;SDS011;18929;48.008;10.882;2022-09-09T03:26:28;3.58;;;0.90;;
32475;SDS011;18929;48.008;10.882;2022-09-09T03:28:55;2.47;;;1.05;;
32475;SDS011;18929;48.008;10.882;2022-09-09T03:31:22;2.70;;;1.05;;
32475;SDS011;18929;48.008;10.882;2022-09-09T03:33:51;5.85;;;1.63;;
32475;SDS011;18929;48.008;10.882;2022-09-09T03:36:18;3.03;;;1.20;;
32475;SDS011;18929;48.008;10.882;2022-09-09T03:38:45;4.38;;;1.08;;
32475;SDS011;18929;48.008;10.882;2022-09-09T03:41:12;5.00;;;1.50;;
32475;SDS011;18929;48.008;10.882;2022-09-09T03:43:39;4.38;;;1.35;;
32475;SDS011;18929;48.008;10.882;2022-09-09T03:46:07;3.85;;;1.30;;
32475;SDS011;18929;48.008;10.882;2022-09-09T03:48:34;3.45;;;1.23;;
32475;SDS011;18929;48.008;10.882;2022-09-09T03:51:02;3.60;;;1.35;;
32475;SDS011;18929;48.008;10.882;2022-09-09T03:53:29;4.07;;;1.38;;
32475;SDS011;18929;48.008;10.882;2022-09-09T03:55:57;2.10;;;1.20;;
32475;SDS011;18929;48.008;10.882;2022-09-09T03:58:25;11.05;;;1.73;;
32475;SDS011;18929;48.008;10.882;2022-09-09T04:00:53;7.25;;;2.42;;
32475;SDS011;18929;48.008;10.882;2022-09-09T04:03:21;5.10;;;1.33;;
32475;SDS011;18929;48.008;10.882;2022-09-09T04:05:49;6.35;;;1.50;;
32475;SDS011;18929;48.008;10.882;2022-09-09T04:08:18;4.20;;;1.30;;
32475;SDS011;18929;48.008;10.882;2022-09-09T04:10:46;3.25;;;1.20;;
32475;SDS011;18929;48.008;10.882;2022-09-09T04:13:13;3.00;;;1.38;;
32475;SDS011;18929;48.008;10.882;2022-09-09T04:15:41;3.45;;;1.23;;
32475;SDS011;18929;48.008;10.882;2022-09-09T04:18:08;8.25;;;1.63;;
32475;SDS011;18929;48.008;10.882;2022-09-09T04:20:37;3.55;;;1.20;;
32475;SDS011;18929;48.008;10.882;2022-09-09T04:23:04;3.67;;;1.50;;
32475;SDS011;18929;48.008;10.882;2022-09-09T04:25:32;7.45;;;1.80;;
32475;SDS011;18929;48.008;10.882;2022-09-09T04:28:00;6.72;;;1.58;;
32475;SDS011;18929;48.008;10.882;2022-09-09T04:30:27;4.03;;;1.60;;
32475;SDS011;18929;48.008;10.882;2022-09-09T04:32:54;7.40;;;1.40;;
32475;SDS011;18929;48.008;10.882;2022-09-09T04:35:22;5.32;;;1.95;;
32475;SDS011;18929;48.008;10.882;2022-09-09T04:37:49;3.10;;;1.23;;
32475;SDS011;18929;48.008;10.882;2022-09-09T04:40:17;4.22;;;1.30;;
32475;SDS011;18929;48.008;10.882;2022-09-09T04:42:45;2.80;;;1.20;;
32475;SDS011;18929;48.008;10.882;2022-09-09T04:45:13;3.30;;;1.10;;
32475;SDS011;18929;48.008;10.882;2022-09-09T04:47:40;3.90;;;1.48;;
32475;SDS011;18929;48.008;10.882;2022-09-09T04:50:08;6.97;;;1.67;;
32475;SDS011;18929;48.008;10.882;2022-09-09T04:52:35;4.88;;;2.03;;
32475;SDS011;18929;48.008;10.882;2022-09-09T04:55:02;5.25;;;1.30;;
32475;SDS011;18929;48.008;10.882;2022-09-09T04:57:30;3.22;;;1.23;;
32475;SDS011;18929;48.008;10.882;2022-09-09T04:59:59;2.33;;;1.25;;
32475;SDS011;18929;48.008;10.882;2022-09-09T05:02:27;3.92;;;1.20;;
32475;SDS011;18929;48.008;10.882;2022-09-09T05:04:55;4.40;;;1.67;;
32475;SDS011;18929;48.008;10.882;2022-09-09T05:07:22;6.68;;;1.55;;
32475;SDS011;18929;48.008;10.882;2022-09-09T05:09:49;8.90;;;2.47;;
32475;SDS011;18929;48.008;10.882;2022-09-09T05:12:16;4.40;;;1.92;;
32475;SDS011;18929;48.008;10.882;2022-09-09T05:14:43;2.55;;;1.23;;
32475;SDS011;18929;48.008;10.882;2022-09-09T05:17:11;4.03;;;1.38;;
32475;SDS011;18929;48.008;10.882;2022-09-09T05:19:38;8.68;;;1.75;;
32475;SDS011;18929;48.008;10.882;2022-09-09T05:22:05;1.88;;;1.30;;
32475;SDS011;18929;48.008;10.882;2022-09-09T05:24:32;3.78;;;1.30;;
32475;SDS011;18929;48.008;10.882;2022-09-09T05:26:59;2.30;;;1.10;;
32475;SDS011;18929;48.008;10.882;2022-09-09T05:29:27;3.97;;;1.60;;
32475;SDS011;18929;48.008;10.882;2022-09-09T05:31:54;4.13;;;1.48;;
32475;SDS011;18929;48.008;10.882;2022-09-09T05:34:23;2.08;;;1.33;;
32475;SDS011;18929;48.008;10.882;2022-09-09T05:36:50;3.05;;;1.40;;
32475;SDS011;18929;48.008;10.882;2022-09-09T05:39:17;4.82;;;1.25;;
32475;SDS011;18929;48.008;10.882;2022-09-09T05:41:44;4.22;;;1.55;;
32475;SDS011;18929;48.008;10.882;2022-09-09T05:44:11;7.00;;;2.35;;
32475;SDS011;18929;48.008;10.882;2022-09-09T05:46:38;8.38;;;2.70;;
32475;SDS011;18929;48.008;10.882;2022-09-09T05:49:05;2.53;;;1.38;;
32475;SDS011;18929;48.008;10.882;2022-09-09T05:51:34;4.57;;;1.58;;
32475;SDS011;18929;48.008;10.882;2022-09-09T05:54:01;2.90;;;1.40;;
32475;SDS011;18929;48.008;10.882;2022-09-09T05:56:29;8.73;;;2.08;;
32475;SDS011;18929;48.008;10.882;2022-09-09T05:58:57;3.13;;;1.50;;
32475;SDS011;18929;48.008;10.882;2022-09-09T06:01:25;2.90;;;1.45;;
32475;SDS011;18929;48.008;10.882;2022-09-09T06:03:53;5.28;;;1.50;;
32475;SDS011;18929;48.008;10.882;2022-09-09T06:06:22;3.25;;;1.73;;
32475;SDS011;18929;48.008;10.882;2022-09-09T06:08:52;7.72;;;2.42;;
32475;SDS011;18929;48.008;10.882;2022-09-09T06:11:21;5.85;;;1.65;;
32475;SDS011;18929;48.008;10.882;2022-09-09T06:13:50;2.83;;;1.73;;
32475;SDS011;18929;48.008;10.882;2022-09-09T06:16:21;7.03;;;2.53;;
32475;SDS011;18929;48.008;10.882;2022-09-09T06:18:50;6.43;;;2.10;;
32475;SDS011;18929;48.008;10.882;2022-09-09T06:21:18;5.13;;;1.80;;
32475;SDS011;18929;48.008;10.882;2022-09-09T06:23:47;9.32;;;2.10;;
32475;SDS011;18929;48.008;10.882;2022-09-09T06:26:17;2.70;;;1.35;;
32475;SDS011;18929;48.008;10.882;2022-09-09T06:28:45;8.52;;;1.98;;
32475;SDS011;18929;48.008;10.882;2022-09-09T06:31:13;3.92;;;1.77;;
32475;SDS011;18929;48.008;10.882;2022-09-09T06:33:43;3.95;;;1.98;;
32475;SDS011;18929;48.008;10.882;2022-09-09T06:36:10;4.72;;;1.23;;
32475;SDS011;18929;48.008;10.882;2022-09-09T06:38:40;6.07;;;1.63;;
32475;SDS011;18929;48.008;10.882;2022-09-09T06:41:48;6.55;;;1.92;;
32475;SDS011;18929;48.008;10.882;2022-09-09T06:44:25;4.88;;;1.83;;
32475;SDS011;18929;48.008;10.882;2022-09-09T06:46:53;6.25;;;2.13;;
32475;SDS011;18929;48.008;10.882;2022-09-09T06:49:20;3.67;;;1.77;;
32475;SDS011;18929;48.008;10.882;2022-09-09T06:55:49;3.08;;;1.30;;
32475;SDS011;18929;48.008;10.882;2022-09-09T06:58:26;2.13;;;1.10;;
32475;SDS011;18929;48.008;10.882;2022-09-09T07:01:11;2.95;;;1.30;;
32475;SDS011;18929;48.008;10.882;2022-09-09T07:03:40;6.18;;;2.15;;
32475;SDS011;18929;48.008;10.882;2022-09-09T07:06:08;5.00;;;1.30;;
32475;SDS011;18929;48.008;10.882;2022-09-09T07:08:40;4.05;;;1.58;;
32475;SDS011;18929;48.008;10.882;2022-09-09T07:11:07;5.45;;;1.60;;
32475;SDS011;18929;48.008;10.882;2022-09-09T07:13:36;2.30;;;1.20;;
32475;SDS011;18929;48.008;10.882;2022-09-09T07:16:03;4.95;;;1.48;;
32475;SDS011;18929;48.008;10.882;2022-09-09T07:18:31;2.60;;;1.30;;
32475;SDS011;18929;48.008;10.882;2022-09-09T07:20:59;2.67;;;1.20;;
32475;SDS011;18929;48.008;10.882;2022-09-09T07:23:28;3.20;;;1.20;;
32475;SDS011;18929;48.008;10.882;2022-09-09T07:25:55;4.50;;;1.13;;
32475;SDS011;18929;48.008;10.882;2022-09-09T07:28:23;3.33;;;1.42;;
32475;SDS011;18929;48.008;10.882;2022-09-09T07:51:37;2.58;;;1.00;;
32475;SDS011;18929;48.008;10.882;2022-09-09T07:54:17;3.30;;;1.10;;
32475;SDS011;18929;48.008;10.882;2022-09-09T07:56:49;2.75;;;1.00;;
32475;SDS011;18929;48.008;10.882;2022-09-09T07:59:23;2.35;;;1.05;;
32475;SDS011;18929;48.008;10.882;2022-09-09T08:01:52;5.80;;;1.20;;
32475;SDS011;18929;48.008;10.882;2022-09-09T08:04:20;5.22;;;1.27;;
32475;SDS011;18929;48.008;10.882;2022-09-09T08:06:50;2.30;;;1.13;;
32475;SDS011;18929;48.008;10.882;2022-09-09T08:09:19;7.50;;;1.33;;
32475;SDS011;18929;48.008;10.882;2022-09-09T08:11:47;3.45;;;1.13;;
32475;SDS011;18929;48.008;10.882;2022-09-09T08:14:14;5.80;;;1.73;;
32475;SDS011;18929;48.008;10.882;2022-09-09T08:16:42;4.00;;;1.25;;
32475;SDS011;18929;48.008;10.882;2022-09-09T11:57:25;6.53;;;1.05;;
32475;SDS011;18929;48.008;10.882;2022-09-09T11:59:58;4.38;;;0.80;;
32475;SDS011;18929;48.008;10.882;2022-09-09T12:02:26;3.47;;;0.70;;
32475;SDS011;18929;48.008;10.882;2022-09-09T12:30:44;5.97;;;1.08;;
32475;SDS011;18929;48.008;10.882;2022-09-09T12:48:07;4.35;;;0.90;;
32475;SDS011;18929;48.008;10.882;2022-09-09T12:50:37;3.15;;;0.60;;
32475;SDS011;18929;48.008;10.882;2022-09-09T12:56:57;3.92;;;0.85;;
32475;SDS011;18929;48.008;10.882;2022-09-09T12:59:25;4.30;;;0.70;;
32475;SDS011;18929;48.008;10.882;2022-09-09T13:01:56;3.75;;;0.80;;
32475;SDS011;18929;48.008;10.882;2022-09-09T13:07:19;3.63;;;0.70;;
32475;SDS011;18929;48.008;10.882;2022-09-09T13:09:48;2.63;;;0.70;;
32475;SDS011;18929;48.008;10.882;2022-09-09T13:12:16;3.65;;;0.60;;
32475;SDS011;18929;48.008;10.882;2022-09-09T13:14:46;2.47;;;0.50;;
32475;SDS011;18929;48.008;10.882;2022-09-09T13:17:17;4.20;;;1.00;;
32475;SDS011;18929;48.008;10.882;2022-09-09T13:19:47;2.70;;;0.63;;
32475;SDS011;18929;48.008;10.882;2022-09-09T13:22:21;2.58;;;0.60;;
32475;SDS011;18929;48.008;10.882;2022-09-09T13:25:00;3.38;;;0.63;;
32475;SDS011;18929;48.008;10.882;2022-09-09T13:30:19;6.63;;;1.17;;
32475;SDS011;18929;48.008;10.882;2022-09-09T13:32:59;3.35;;;0.75;;
32475;SDS011;18929;48.008;10.882;2022-09-09T13:35:27;4.75;;;0.82;;
32475;SDS011;18929;48.008;10.882;2022-09-09T13:41:00;3.95;;;0.70;;
32475;SDS011;18929;48.008;10.882;2022-09-09T13:43:30;1.30;;;0.40;;
32475;SDS011;18929;48.008;10.882;2022-09-09T13:46:03;1.98;;;0.38;;
32475;SDS011;18929;48.008;10.882;2022-09-09T13:51:00;3.22;;;0.52;;
32475;SDS011;18929;48.008;10.882;2022-09-09T13:53:31;4.03;;;0.60;;
32475;SDS011;18929;48.008;10.882;2022-09-09T13:55:58;2.85;;;0.77;;
32475;SDS011;18929;48.008;10.882;2022-09-09T13:58:26;1.77;;;0.50;;
32475;SDS011;18929;48.008;10.882;2022-09-09T14:00:53;4.90;;;0.82;;
32475;SDS011;18929;48.008;10.882;2022-09-09T14:03:20;4.10;;;0.80;;
32475;SDS011;18929;48.008;10.882;2022-09-09T14:08:21;3.22;;;0.80;;
32475;SDS011;18929;48.008;10.882;2022-09-09T14:10:52;3.17;;;0.70;;
32475;SDS011;18929;48.008;10.882;2022-09-09T14:13:24;2.35;;;0.73;;
32475;SDS011;18929;48.008;10.882;2022-09-09T14:15:51;1.80;;;0.73;;
32475;SDS011;18929;48.008;10.882;2022-09-09T14:18:18;3.22;;;0.70;;
32475;SDS011;18929;48.008;10.882;2022-09-09T14:20:47;2.83;;;0.70;;
32475;SDS011;18929;48.008;10.882;2022-09-09T14:23:15;2.20;;;0.70;;
32475;SDS011;18929;48.008;10.882;2022-09-09T14:25:44;4.35;;;0.77;;
32475;SDS011;18929;48.008;10.882;2022-09-09T14:28:13;1.67;;;0.47;;
32475;SDS011;18929;48.008;10.882;2022-09-09T14:30:41;5.38;;;0.68;;
32475;SDS011;18929;48.008;10.882;2022-09-09T14:33:10;1.83;;;0.40;;
32475;SDS011;18929;48.008;10.882;2022-09-09T14:35:38;3.65;;;0.70;;
32475;SDS011;18929;48.008;10.882;2022-09-09T14:38:06;3.45;;;0.80;;
32475;SDS011;18929;48.008;10.882;2022-09-09T14:40:33;2.78;;;0.63;;
32475;SDS011;18929;48.008;10.882;2022-09-09T14:43:01;1.98;;;0.40;;
32475;SDS011;18929;48.008;10.882;2022-09-09T14:45:30;2.60;;;0.45;;
32475;SDS011;18929;48.008;10.882;2022-09-09T14:47:57;3.33;;;0.82;;
32475;SDS011;18929;48.008;10.882;2022-09-09T14:50:24;2.22;;;0.47;;
32475;SDS011;18929;48.008;10.882;2022-09-09T14:52:51;1.75;;;0.55;;
32475;SDS011;18929;48.008;10.882;2022-09-09T14:55:18;2.90;;;0.70;;
32475;SDS011;18929;48.008;10.882;2022-09-09T14:57:46;5.45;;;0.90;;
32475;SDS011;18929;48.008;10.882;2022-09-09T15:00:13;2.92;;;0.70;;
32475;SDS011;18929;48.008;10.882;2022-09-09T15:02:42;5.13;;;0.75;;
32475;SDS011;18929;48.008;10.882;2022-09-09T15:05:09;2.80;;;0.70;;
32475;SDS011;18929;48.008;10.882;2022-09-09T15:07:36;4.15;;;0.70;;
32475;SDS011;18929;48.008;10.882;2022-09-09T15:10:03;3.15;;;1.38;;
32475;SDS011;18929;48.008;10.882;2022-09-09T15:12:31;1.88;;;0.60;;
32475;SDS011;18929;48.008;10.882;2022-09-09T15:15:00;2.63;;;0.55;;
32475;SDS011;18929;48.008;10.882;2022-09-09T15:17:28;4.65;;;0.90;;
32475;SDS011;18929;48.008;10.882;2022-09-09T15:19:57;2.45;;;0.98;;
32475;SDS011;18929;48.008;10.882;2022-09-09T15:22:24;2.80;;;0.85;;
32475;SDS011;18929;48.008;10.882;2022-09-09T15:24:51;3.05;;;0.50;;
32475;SDS011;18929;48.008;10.882;2022-09-09T15:27:18;1.98;;;0.60;;
32475;SDS011;18929;48.008;10.882;2022-09-09T15:29:44;1.33;;;0.50;;
32475;SDS011;18929;48.008;10.882;2022-09-09T15:32:12;2.33;;;0.60;;
32475;SDS011;18929;48.008;10.882;2022-09-09T15:34:39;3.25;;;0.77;;
32475;SDS011;18929;48.008;10.882;2022-09-09T15:37:07;1.77;;;0.43;;
32475;SDS011;18929;48.008;10.882;2022-09-09T15:39:38;3.38;;;0.77;;
32475;SDS011;18929;48.008;10.882;2022-09-09T15:42:06;3.20;;;0.85;;
32475;SDS011;18929;48.008;10.882;2022-09-09T15:44:38;3.08;;;0.70;;
32475;SDS011;18929;48.008;10.882;2022-09-09T15:47:07;2.58;;;0.60;;
32475;SDS011;18929;48.008;10.882;2022-09-09T15:49:37;3.67;;;0.70;;
32475;SDS011;18929;48.008;10.882;2022-09-09T15:52:04;1.45;;;0.40;;
32475;SDS011;18929;48.008;10.882;2022-09-09T15:54:33;2.42;;;0.60;;
32475;SDS011;18929;48.008;10.882;2022-09-09T15:57:04;2.53;;;0.60;;
32475;SDS011;18929;48.008;10.882;2022-09-09T15:59:32;3.17;;;0.50;;
32475;SDS011;18929;48.008;10.882;2022-09-09T16:02:00;1.65;;;0.40;;
32475;SDS011;18929;48.008;10.882;2022-09-09T16:04:27;2.08;;;0.40;;
32475;SDS011;18929;48.008;10.882;2022-09-09T16:06:55;3.10;;;0.32;;
32475;SDS011;18929;48.008;10.882;2022-09-09T16:09:24;2.38;;;0.50;;
32475;SDS011;18929;48.008;10.882;2022-09-09T16:11:54;1.85;;;0.57;;
32475;SDS011;18929;48.008;10.882;2022-09-09T16:14:23;3.85;;;0.60;;
32475;SDS011;18929;48.008;10.882;2022-09-09T16:16:51;1.48;;;0.70;;
32475;SDS011;18929;48.008;10.882;2022-09-09T16:19:18;1.77;;;0.60;;
32475;SDS011;18929;48.008;10.882;2022-09-09T16:21:47;3.40;;;0.77;;
32475;SDS011;18929;48.008;10.882;2022-09-09T16:24:15;2.63;;;0.70;;
32475;SDS011;18929;48.008;10.882;2022-09-09T16:26:44;2.58;;;0.60;;
32475;SDS011;18929;48.008;10.882;2022-09-09T16:29:14;3.38;;;0.75;;
32475;SDS011;18929;48.008;10.882;2022-09-09T16:31:42;1.30;;;0.40;;
32475;SDS011;18929;48.008;10.882;2022-09-09T16:34:10;4.22;;;0.70;;
32475;SDS011;18929;48.008;10.882;2022-09-09T16:36:38;1.85;;;0.50;;
32475;SDS011;18929;48.008;10.882;2022-09-09T16:39:06;1.58;;;0.55;;
32475;SDS011;18929;48.008;10.882;2022-09-09T16:41:35;1.25;;;0.57;;
32475;SDS011;18929;48.008;10.882;2022-09-09T16:44:04;2.75;;;0.68;;
32475;SDS011;18929;48.008;10.882;2022-09-09T16:46:34;2.88;;;0.70;;
32475;SDS011;18929;48.008;10.882;2022-09-09T16:49:04;2.95;;;0.63;;
32475;SDS011;18929;48.008;10.882;2022-09-09T16:51:33;1.33;;;0.45;;
32475;SDS011;18929;48.008;10.882;2022-09-09T16:54:01;2.42;;;0.60;;
32475;SDS011;18929;48.008;10.882;2022-09-09T16:56:31;2.22;;;0.60;;
32475;SDS011;18929;48.008;10.882;2022-09-09T16:59:00;4.75;;;0.98;;
32475;SDS011;18929;48.008;10.882;2022-09-09T17:01:29;1.73;;;0.47;;
32475;SDS011;18929;48.008;10.882;2022-09-09T17:03:59;1.90;;;0.60;;
32475;SDS011;18929;48.008;10.882;2022-09-09T17:06:28;1.80;;;0.60;;
32475;SDS011;18929;48.008;10.882;2022-09-09T17:08:56;5.20;;;0.90;;
32475;SDS011;18929;48.008;10.882;2022-09-09T17:11:24;3.05;;;0.63;;
32475;SDS011;18929;48.008;10.882;2022-09-09T17:13:52;2.40;;;0.60;;
32475;SDS011;18929;48.008;10.882;2022-09-09T17:16:21;3.95;;;0.90;;
32475;SDS011;18929;48.008;10.882;2022-09-09T17:18:49;2.50;;;0.80;;
32475;SDS011;18929;48.008;10.882;2022-09-09T17:21:19;2.88;;;0.80;;
32475;SDS011;18929;48.008;10.882;2022-09-09T17:23:48;2.37;;;0.70;;
32475;SDS011;18929;48.008;10.882;2022-09-09T17:26:16;4.55;;;0.73;;
32475;SDS011;18929;48.008;10.882;2022-09-09T17:28:45;2.22;;;0.80;;
32475;SDS011;18929;48.008;10.882;2022-09-09T17:31:13;3.72;;;0.57;;
32475;SDS011;18929;48.008;10.882;2022-09-09T17:33:41;2.25;;;0.50;;
32475;SDS011;18929;48.008;10.882;2022-09-09T17:36:11;1.40;;;0.43;;
32475;SDS011;18929;48.008;10.882;2022-09-09T17:38:42;3.67;;;0.70;;
32475;SDS011;18929;48.008;10.882;2022-09-09T17:41:10;2.60;;;0.73;;
32475;SDS011;18929;48.008;10.882;2022-09-09T17:43:39;3.85;;;0.70;;
32475;SDS011;18929;48.008;10.882;2022-09-09T17:46:07;3.33;;;0.70;;
32475;SDS011;18929;48.008;10.882;2022-09-09T17:48:36;1.10;;;0.60;;
32475;SDS011;18929;48.008;10.882;2022-09-09T17:51:03;4.38;;;1.00;;
32475;SDS011;18929;48.008;10.882;2022-09-09T17:53:31;2.72;;;0.50;;
32475;SDS011;18929;48.008;10.882;2022-09-09T17:56:04;3.10;;;0.70;;
32475;SDS011;18929;48.008;10.882;2022-09-09T17:58:34;3.60;;;0.85;;
32475;SDS011;18929;48.008;10.882;2022-09-09T18:01:02;2.00;;;0.50;;
32475;SDS011;18929;48.008;10.882;2022-09-09T18:03:30;3.97;;;0.80;;
32475;SDS011;18929;48.008;10.882;2022-09-09T18:06:00;2.17;;;0.63;;
32475;SDS011;18929;48.008;10.882;2022-09-09T18:08:27;1.42;;;0.60;;
32475;SDS011;18929;48.008;10.882;2022-09-09T18:10:54;2.63;;;0.70;;
32475;SDS011;18929;48.008;10.882;2022-09-09T18:13:23;3.08;;;0.80;;
32475;SDS011;18929;48.008;10.882;2022-09-09T18:15:53;1.30;;;0.50;;
32475;SDS011;18929;48.008;10.882;2022-09-09T18:18:20;1.30;;;0.60;;
32475;SDS011;18929;48.008;10.882;2022-09-09T18:20:55;1.63;;;0.70;;
32475;SDS011;18929;48.008;10.882;2022-09-09T18:23:23;3.30;;;0.77;;
32475;SDS011;18929;48.008;10.882;2022-09-09T18:25:50;1.75;;;0.60;;
32475;SDS011;18929;48.008;10.882;2022-09-09T18:28:17;2.30;;;0.73;;
32475;SDS011;18929;48.008;10.882;2022-09-09T18:30:47;3.13;;;0.70;;
32475;SDS011;18929;48.008;10.882;2022-09-09T18:33:14;2.20;;;0.75;;
32475;SDS011;18929;48.008;10.882;2022-09-09T18:35:41;2.28;;;0.70;;
32475;SDS011;18929;48.008;10.882;2022-09-09T18:38:08;1.85;;;0.75;;
32475;SDS011;18929;48.008;10.882;2022-09-09T18:40:35;1.50;;;0.63;;
32475;SDS011;18929;48.008;10.882;2022-09-09T18:43:02;2.33;;;0.75;;
32475;SDS011;18929;48.008;10.882;2022-09-09T18:45:29;4.15;;;0.90;;
32475;SDS011;18929;48.008;10.882;2022-09-09T18:48:01;1.30;;;0.50;;
32475;SDS011;18929;48.008;10.882;2022-09-09T18:50:29;2.15;;;0.80;;
32475;SDS011;18929;48.008;10.882;2022-09-09T18:52:56;1.40;;;0.70;;
32475;SDS011;18929;48.008;10.882;2022-09-09T18:55:23;1.98;;;0.70;;
32475;SDS011;18929;48.008;10.882;2022-09-09T18:57:50;2.65;;;0.82;;
32475;SDS011;18929;48.008;10.882;2022-09-09T19:00:17;3.72;;;0.82;;
32475;SDS011;18929;48.008;10.882;2022-09-09T19:02:59;5.07;;;1.00;;
32475;SDS011;18929;48.008;10.882;2022-09-09T19:05:27;2.00;;;1.00;;
32475;SDS011;18929;48.008;10.882;2022-09-09T19:07:55;6.18;;;1.35;;
32475;SDS011;18929;48.008;10.882;2022-09-09T19:10:22;2.15;;;0.90;;
32475;SDS011;18929;48.008;10.882;2022-09-09T19:12:49;2.22;;;0.85;;
32475;SDS011;18929;48.008;10.882;2022-09-09T19:15:16;10.95;;;7.30;;
32475;SDS011;18929;48.008;10.882;2022-09-09T19:17:43;2.88;;;1.10;;
32475;SDS011;18929;48.008;10.882;2022-09-09T19:20:10;6.05;;;3.08;;
32475;SDS011;18929;48.008;10.882;2022-09-09T19:22:38;4.63;;;2.70;;
32475;SDS011;18929;48.008;10.882;2022-09-09T19:25:06;3.95;;;2.25;;
32475;SDS011;18929;48.008;10.882;2022-09-09T19:27:33;6.35;;;3.38;;
32475;SDS011;18929;48.008;10.882;2022-09-09T19:30:01;5.95;;;3.72;;
32475;SDS011;18929;48.008;10.882;2022-09-09T19:32:28;7.20;;;3.30;;
32475;SDS011;18929;48.008;10.882;2022-09-09T19:34:55;6.28;;;3.35;;
32475;SDS011;18929;48.008;10.882;2022-09-09T19:37:22;5.07;;;2.75;;
32475;SDS011;18929;48.008;10.882;2022-09-09T19:39:51;4.95;;;2.58;;
32475;SDS011;18929;48.008;10.882;2022-09-09T19:42:18;3.97;;;2.30;;
32475;SDS011;18929;48.008;10.882;2022-09-09T19:44:45;3.30;;;1.90;;
32475;SDS011;18929;48.008;10.882;2022-09-09T19:47:12;4.50;;;1.80;;
32475;SDS011;18929;48.008;10.882;2022-09-09T19:49:39;3.35;;;2.00;;